createdAt,value
2023-03-25T00:00:21.390Z,0.40
2023-03-25T00:02:51.309Z,0.30
2023-03-25T00:05:22.635Z,0.30
2023-03-25T00:07:54.560Z,0.20
2023-03-25T00:10:23.034Z,0.28
2023-03-25T00:12:52.638Z,0.30
2023-03-25T00:15:22.403Z,0.20
2023-03-25T00:17:50.781Z,0.32
2023-03-25T00:20:19.196Z,0.22
2023-03-25T00:22:47.467Z,0.20
2023-03-25T00:25:19.341Z,0.35
2023-03-25T00:27:48.661Z,0.20
2023-03-25T00:30:18.274Z,0.40
2023-03-25T00:32:50.388Z,0.20
2023-03-25T00:35:20.187Z,0.30
2023-03-25T00:37:57.909Z,0.30
2023-03-25T00:40:29.504Z,0.28
2023-03-25T00:42:58.231Z,0.30
2023-03-25T00:45:26.657Z,0.30
2023-03-25T00:47:55.348Z,0.28
2023-03-25T00:50:24.620Z,0.40
2023-03-25T00:52:53.483Z,0.20
2023-03-25T00:55:22.143Z,0.20
2023-03-25T00:57:51.811Z,0.20
2023-03-25T01:00:20.956Z,0.20
2023-03-25T01:02:56.207Z,0.40
2023-03-25T01:05:26.395Z,0.22
2023-03-25T01:07:55.579Z,0.20
2023-03-25T01:10:26.093Z,0.30
2023-03-25T01:12:56.464Z,0.20
2023-03-25T01:15:24.798Z,0.25
2023-03-25T01:17:53.072Z,0.30
2023-03-25T01:20:21.316Z,0.20
2023-03-25T01:22:49.546Z,0.20
2023-03-25T01:25:17.900Z,0.30
2023-03-25T01:27:46.180Z,0.20
2023-03-25T01:30:17.315Z,0.30
2023-03-25T01:32:45.919Z,0.43
2023-03-25T01:35:14.158Z,0.60
2023-03-25T01:37:44.791Z,0.25
2023-03-25T01:40:19.324Z,0.38
2023-03-25T01:42:47.609Z,0.45
2023-03-25T01:45:26.599Z,0.30
2023-03-25T01:48:01.405Z,0.20
2023-03-25T01:50:32.746Z,0.32
2023-03-25T01:53:04.418Z,0.30
2023-03-25T01:55:34.824Z,0.30
2023-03-25T01:58:10.785Z,0.38
2023-03-25T02:00:43.930Z,0.55
2023-03-25T02:03:14.243Z,0.40
2023-03-25T02:05:48.019Z,0.43
2023-03-25T02:08:17.060Z,0.40
2023-03-25T02:10:47.589Z,0.43
2023-03-25T02:13:17.206Z,0.30
2023-03-25T02:16:07.130Z,0.40
2023-03-25T02:18:44.029Z,0.50
2023-03-25T02:21:54.642Z,0.70
2023-03-25T02:24:54.034Z,0.40
2023-03-25T02:27:28.464Z,0.50
2023-03-25T02:30:12.210Z,0.38
2023-03-25T02:33:07.515Z,0.60
2023-03-25T02:35:53.925Z,0.50
2023-03-25T02:38:32.696Z,0.50
2023-03-25T02:41:09.231Z,0.40
2023-03-25T02:43:43.535Z,0.30
2023-03-25T02:46:16.772Z,0.40
2023-03-25T02:51:22.521Z,0.55
2023-03-25T02:53:53.799Z,0.60
2023-03-25T02:56:25.636Z,0.50
2023-03-25T02:58:57.338Z,0.57
2023-03-25T03:01:27.178Z,0.45
2023-03-25T03:03:55.906Z,0.40
2023-03-25T03:06:26.166Z,0.40
2023-03-25T03:09:15.016Z,0.35
2023-03-25T03:11:51.810Z,0.40
2023-03-25T03:14:38.657Z,0.40
2023-03-25T03:17:14.283Z,0.55
2023-03-25T03:19:47.221Z,0.50
2023-03-25T03:22:34.187Z,0.50
2023-03-25T03:25:10.928Z,0.40
2023-03-25T03:27:45.172Z,0.50
2023-03-25T03:30:17.718Z,0.47
2023-03-25T03:32:53.585Z,0.77
2023-03-25T03:35:25.772Z,0.50
2023-03-25T03:37:59.512Z,0.43
2023-03-25T03:40:32.133Z,0.52
2023-03-25T03:43:04.669Z,0.40
2023-03-25T03:45:41.418Z,0.40
2023-03-25T03:48:13.798Z,0.57
2023-03-25T03:50:50.570Z,0.52
2023-03-25T03:53:24.861Z,0.80
2023-03-25T03:56:01.755Z,0.70
2023-03-25T03:58:36.842Z,0.40
2023-03-25T04:01:11.088Z,0.60
2023-03-25T04:03:45.278Z,0.73
2023-03-25T04:06:24.632Z,0.60
2023-03-25T04:08:59.914Z,1.00
2023-03-25T04:11:38.353Z,0.65
2023-03-25T04:14:08.834Z,0.70
2023-03-25T04:16:39.887Z,0.80
2023-03-25T04:19:09.486Z,0.60
2023-03-25T04:21:38.004Z,0.43
2023-03-25T04:24:08.358Z,0.60
2023-03-25T04:26:40.545Z,0.65
2023-03-25T04:29:09.560Z,0.70
2023-03-25T04:31:46.930Z,0.47
2023-03-25T04:34:15.992Z,0.40
2023-03-25T04:36:44.696Z,0.40
2023-03-25T04:39:12.939Z,0.60
2023-03-25T04:41:44.042Z,0.60
2023-03-25T04:44:12.720Z,0.55
2023-03-25T04:46:41.372Z,0.60
2023-03-25T04:49:19.194Z,0.63
2023-03-25T04:51:49.556Z,0.68
2023-03-25T04:54:18.350Z,0.50
2023-03-25T04:56:49.876Z,0.50
2023-03-25T04:59:19.241Z,0.60
2023-03-25T05:01:48.226Z,0.50
2023-03-25T05:04:18.563Z,0.30
2023-03-25T05:06:53.308Z,0.70
2023-03-25T05:09:24.643Z,0.43
2023-03-25T05:11:56.010Z,0.60
2023-03-25T05:14:24.497Z,0.60
2023-03-25T05:16:52.978Z,0.60
2023-03-25T05:19:21.703Z,0.55
2023-03-25T05:21:50.600Z,0.68
2023-03-25T05:24:19.417Z,0.65
2023-03-25T05:26:47.905Z,0.70
2023-03-25T05:29:17.631Z,0.45
2023-03-25T05:31:48.577Z,0.63
2023-03-25T05:34:17.401Z,0.80
2023-03-25T05:36:46.024Z,0.60
2023-03-25T05:39:14.407Z,0.60
2023-03-25T05:41:45.650Z,0.50
2023-03-25T05:44:15.471Z,0.50
2023-03-25T05:46:45.929Z,0.43
2023-03-25T05:49:14.476Z,0.80
2023-03-25T05:51:45.193Z,0.60
2023-03-25T05:54:13.605Z,0.77
2023-03-25T05:56:42.861Z,0.70
2023-03-25T05:59:11.453Z,0.40
2023-03-25T06:01:41.987Z,0.60
2023-03-25T06:04:13.027Z,0.45
2023-03-25T06:06:42.393Z,0.40
2023-03-25T06:09:11.877Z,0.52
2023-03-25T06:11:40.225Z,0.47
2023-03-25T06:14:09.923Z,0.85
2023-03-25T06:16:38.231Z,0.70
2023-03-25T06:19:09.642Z,0.40
2023-03-25T06:21:39.771Z,2.92
2023-03-25T06:24:09.381Z,1.25
2023-03-25T06:26:37.871Z,0.50
2023-03-25T06:29:06.115Z,0.50
2023-03-25T06:31:34.727Z,0.90
2023-03-25T06:34:03.195Z,1.58
2023-03-25T06:36:31.796Z,1.17
2023-03-25T06:39:01.620Z,0.98
2023-03-25T06:41:29.856Z,1.00
2023-03-25T06:43:58.482Z,0.90
2023-03-25T06:46:26.842Z,0.50
2023-03-25T06:48:55.079Z,0.52
2023-03-25T06:51:24.259Z,0.65
2023-03-25T06:53:52.983Z,0.60
2023-03-25T06:56:22.641Z,0.80
2023-03-25T06:58:51.107Z,0.40
2023-03-25T07:01:19.487Z,0.50
2023-03-25T07:03:47.768Z,0.40
2023-03-25T07:06:19.304Z,0.50
2023-03-25T07:08:48.021Z,0.35
2023-03-25T07:11:20.907Z,0.40
2023-03-25T07:13:53.884Z,0.38
2023-03-25T07:16:25.028Z,0.50
2023-03-25T07:18:55.010Z,0.60
2023-03-25T07:21:24.160Z,0.47
2023-03-25T07:23:52.863Z,0.52
2023-03-25T07:26:21.207Z,0.40
2023-03-25T07:28:51.119Z,0.57
2023-03-25T07:31:19.649Z,0.25
2023-03-25T07:33:48.320Z,0.50
2023-03-25T07:36:17.654Z,0.70
2023-03-25T07:38:47.726Z,0.50
2023-03-25T07:41:16.270Z,0.47
2023-03-25T07:43:46.488Z,0.57
2023-03-25T07:46:16.192Z,0.70
2023-03-25T07:48:44.745Z,0.50
2023-03-25T07:51:14.047Z,0.40
2023-03-25T07:53:45.407Z,0.47
2023-03-25T07:56:14.986Z,0.50
2023-03-25T07:58:44.568Z,0.50
2023-03-25T08:01:12.980Z,0.60
2023-03-25T08:03:43.130Z,0.90
2023-03-25T08:06:11.576Z,0.88
2023-03-25T08:08:40.434Z,2.17
2023-03-25T08:11:09.302Z,1.20
2023-03-25T08:13:40.998Z,0.70
2023-03-25T08:16:15.588Z,1.02
2023-03-25T08:18:46.510Z,1.00
2023-03-25T08:21:15.799Z,0.95
2023-03-25T08:23:46.316Z,1.80
2023-03-25T08:26:16.478Z,1.15
2023-03-25T08:28:45.049Z,0.90
2023-03-25T08:31:14.177Z,0.80
2023-03-25T08:33:43.053Z,1.20
2023-03-25T08:36:19.734Z,1.15
2023-03-25T08:38:48.342Z,1.23
2023-03-25T08:41:16.687Z,0.88
2023-03-25T08:43:46.139Z,0.80
2023-03-25T08:46:15.379Z,1.02
2023-03-25T08:48:44.612Z,0.90
2023-03-25T08:51:14.622Z,1.20
2023-03-25T08:53:42.937Z,1.10
2023-03-25T08:56:12.555Z,1.17
2023-03-25T08:58:41.380Z,1.08
2023-03-25T09:01:10.195Z,1.17
2023-03-25T09:03:38.650Z,1.20
2023-03-25T09:06:08.756Z,1.10
2023-03-25T09:08:38.803Z,1.65
2023-03-25T09:11:09.413Z,0.88
2023-03-25T09:13:41.168Z,0.82
2023-03-25T09:16:10.858Z,1.30
2023-03-25T09:18:40.447Z,1.20
2023-03-25T09:21:09.007Z,1.52
2023-03-25T09:23:39.036Z,1.00
2023-03-25T09:26:07.974Z,1.10
2023-03-25T09:28:36.279Z,0.90
2023-03-25T09:31:04.960Z,0.75
2023-03-25T09:33:33.557Z,0.60
2023-03-25T09:36:02.355Z,0.50
2023-03-25T09:38:31.253Z,0.55
2023-03-25T09:41:06.004Z,0.40
2023-03-25T09:43:49.629Z,0.30
2023-03-25T09:48:49.440Z,0.50
2023-03-25T09:51:24.427Z,0.22
2023-03-25T09:53:58.378Z,0.20
2023-03-25T09:56:31.095Z,0.30
2023-03-25T09:59:05.174Z,0.50
2023-03-25T10:01:42.536Z,1.83
2023-03-25T10:04:45.514Z,0.55
2023-03-25T10:07:30.269Z,0.40
2023-03-25T10:10:06.051Z,0.30
2023-03-25T10:12:44.483Z,0.30
2023-03-25T10:15:26.845Z,0.40
2023-03-25T10:18:06.734Z,0.45
2023-03-25T10:20:45.607Z,0.50
2023-03-25T10:23:23.460Z,0.50
2023-03-25T10:25:57.888Z,0.40
2023-03-25T10:28:33.196Z,0.40
2023-03-25T10:31:03.896Z,0.20
2023-03-25T10:33:37.771Z,0.50
2023-03-25T10:36:09.628Z,0.50
2023-03-25T10:38:39.744Z,0.50
2023-03-25T10:41:17.568Z,0.40
2023-03-25T10:43:47.363Z,0.55
2023-03-25T10:46:25.239Z,0.50
2023-03-25T10:48:53.840Z,0.60
2023-03-25T10:51:27.200Z,0.57
2023-03-25T10:56:27.220Z,0.40
2023-03-25T10:59:00.503Z,0.40
2023-03-25T11:01:38.224Z,0.50
2023-03-25T11:04:08.954Z,0.30
2023-03-25T11:06:40.962Z,0.70
2023-03-25T11:09:15.578Z,0.43
2023-03-25T11:11:44.340Z,0.35
2023-03-25T11:14:14.411Z,0.30
2023-03-25T11:16:47.414Z,0.30
2023-03-25T11:19:23.387Z,0.45
2023-03-25T11:21:56.569Z,0.38
2023-03-25T11:24:29.348Z,0.50
2023-03-25T11:26:58.503Z,0.52
2023-03-25T11:29:29.206Z,0.50
2023-03-25T11:32:00.193Z,0.50
2023-03-25T11:34:29.044Z,0.40
2023-03-25T11:37:01.798Z,0.80
2023-03-25T11:39:34.981Z,0.52
2023-03-25T11:42:24.526Z,0.77
2023-03-25T11:44:56.364Z,0.60
2023-03-25T11:47:27.893Z,0.60
2023-03-25T11:49:57.932Z,0.90
2023-03-25T11:52:28.903Z,0.50
2023-03-25T11:54:57.901Z,0.68
2023-03-25T11:57:30.714Z,0.50
2023-03-25T12:00:13.129Z,0.82
2023-03-25T12:02:42.888Z,0.40
2023-03-25T12:05:16.545Z,1.05
2023-03-25T12:07:47.431Z,0.52
2023-03-25T12:10:26.688Z,0.50
2023-03-25T12:13:03.406Z,0.50
2023-03-25T12:15:41.573Z,1.02
2023-03-25T12:18:31.098Z,0.60
2023-03-25T12:21:08.219Z,0.68
2023-03-25T12:23:45.621Z,0.55
2023-03-25T12:26:17.649Z,0.77
2023-03-25T12:29:09.700Z,0.50
2023-03-25T12:31:51.756Z,0.60
2023-03-25T12:34:43.154Z,0.98
2023-03-25T12:37:23.865Z,0.73
2023-03-25T12:40:07.585Z,0.38
2023-03-25T12:42:47.819Z,0.75
2023-03-25T12:45:51.986Z,1.10
2023-03-25T12:48:38.139Z,0.82
2023-03-25T12:51:12.597Z,0.75
2023-03-25T12:53:49.618Z,0.65
2023-03-25T12:56:32.459Z,0.70
2023-03-25T12:59:17.734Z,0.70
2023-03-25T13:01:54.749Z,0.60
2023-03-25T13:04:50.702Z,0.68
2023-03-25T13:07:21.756Z,0.60
2023-03-25T13:10:01.873Z,0.90
2023-03-25T13:12:33.862Z,0.50
2023-03-25T13:15:09.538Z,0.98
2023-03-25T13:17:43.244Z,0.77
2023-03-25T13:20:13.337Z,0.57
2023-03-25T13:22:44.978Z,0.40
2023-03-25T13:25:22.579Z,0.40
2023-03-25T13:27:53.282Z,0.50
2023-03-25T13:30:32.503Z,0.60
2023-03-25T13:33:08.186Z,0.63
2023-03-25T13:35:45.308Z,0.40
2023-03-25T13:38:20.803Z,0.30
2023-03-25T13:40:55.848Z,0.50
2023-03-25T13:43:30.284Z,0.50
2023-03-25T13:46:06.246Z,0.43
2023-03-25T13:48:41.880Z,0.50
2023-03-25T13:51:11.730Z,0.57
2023-03-25T13:53:46.520Z,0.70
2023-03-25T13:56:47.890Z,0.60
2023-03-25T13:59:37.361Z,0.80
2023-03-25T14:02:25.631Z,0.50
2023-03-25T14:05:31.487Z,0.70
2023-03-25T14:08:35.335Z,0.82
2023-03-25T14:11:17.621Z,0.85
2023-03-25T14:13:50.803Z,1.65
2023-03-25T14:16:22.848Z,3.67
2023-03-25T14:18:54.565Z,1.05
2023-03-25T14:21:35.130Z,0.70
2023-03-25T14:24:11.407Z,0.50
2023-03-25T14:26:45.405Z,0.55
2023-03-25T14:29:26.287Z,0.88
2023-03-25T14:32:07.130Z,0.90
2023-03-25T14:34:35.617Z,0.55
2023-03-25T14:37:30.629Z,0.73
2023-03-25T14:40:06.610Z,0.57
2023-03-25T14:42:59.734Z,0.52
2023-03-25T14:46:01.699Z,0.60
2023-03-25T14:48:37.521Z,0.70
2023-03-25T14:51:23.117Z,0.75
2023-03-25T14:53:58.013Z,1.25
2023-03-25T14:56:33.860Z,1.90
2023-03-25T14:59:10.496Z,0.90
2023-03-25T15:01:42.145Z,1.20
2023-03-25T15:04:15.373Z,1.00
2023-03-25T15:06:43.827Z,0.50
2023-03-25T15:09:15.468Z,0.70
2023-03-25T15:11:45.677Z,0.80
2023-03-25T15:14:18.344Z,0.90
2023-03-25T15:17:05.748Z,0.60
2023-03-25T15:20:10.518Z,0.68
2023-03-25T15:22:39.564Z,0.70
2023-03-25T15:25:16.187Z,0.65
2023-03-25T15:28:08.580Z,0.75
2023-03-25T15:31:06.730Z,0.93
2023-03-25T15:33:51.139Z,0.55
2023-03-25T15:36:45.669Z,0.60
2023-03-25T15:39:31.182Z,0.50
2023-03-25T15:42:23.472Z,0.55
2023-03-25T15:45:08.016Z,0.40
2023-03-25T15:47:50.412Z,0.93
2023-03-25T15:50:42.043Z,0.65
2023-03-25T15:53:42.869Z,0.60
2023-03-25T15:56:14.747Z,0.70
2023-03-25T15:58:51.026Z,0.80
2023-03-25T16:01:25.899Z,1.00
2023-03-25T16:04:02.099Z,0.57
2023-03-25T16:06:32.406Z,0.90
2023-03-25T16:09:02.995Z,0.80
2023-03-25T16:11:31.555Z,0.68
2023-03-25T16:14:05.866Z,1.30
2023-03-25T16:16:37.105Z,0.70
2023-03-25T16:19:11.350Z,1.10
2023-03-25T16:21:39.765Z,0.73
2023-03-25T16:24:10.501Z,0.70
2023-03-25T16:26:42.595Z,1.20
2023-03-25T16:29:18.592Z,0.85
2023-03-25T16:31:58.010Z,0.73
2023-03-25T16:34:29.048Z,1.25
2023-03-25T16:36:57.739Z,0.80
2023-03-25T16:39:26.293Z,1.10
2023-03-25T16:42:07.998Z,0.65
2023-03-25T16:44:36.567Z,0.65
2023-03-25T16:47:05.277Z,0.80
2023-03-25T16:49:38.364Z,0.75
2023-03-25T16:52:14.438Z,0.70
2023-03-25T16:54:48.857Z,0.80
2023-03-25T16:57:18.892Z,0.85
2023-03-25T16:59:48.680Z,1.10
2023-03-25T17:02:29.358Z,0.65
2023-03-25T17:05:17.060Z,0.70
2023-03-25T17:07:46.153Z,0.52
2023-03-25T17:10:20.453Z,0.70
2023-03-25T17:12:55.308Z,1.38
2023-03-25T17:15:23.997Z,0.50
2023-03-25T17:18:00.048Z,0.70
2023-03-25T17:20:36.031Z,0.80
2023-03-25T17:23:08.382Z,0.50
2023-03-25T17:25:38.412Z,1.38
2023-03-25T17:28:28.594Z,1.30
2023-03-25T17:30:57.253Z,1.08
2023-03-25T17:33:35.198Z,2.00
2023-03-25T17:36:09.496Z,1.02
2023-03-25T17:38:44.924Z,0.80
2023-03-25T17:41:15.599Z,0.90
2023-03-25T17:43:45.920Z,1.17
2023-03-25T17:46:15.087Z,0.73
2023-03-25T17:48:43.316Z,0.77
2023-03-25T17:51:14.363Z,0.85
2023-03-25T17:53:42.530Z,0.73
2023-03-25T17:56:12.778Z,0.45
2023-03-25T17:58:42.127Z,0.82
2023-03-25T18:01:12.411Z,0.60
2023-03-25T18:03:41.309Z,0.80
2023-03-25T18:06:09.949Z,0.50
2023-03-25T18:08:39.678Z,1.05
2023-03-25T18:11:11.719Z,0.70
2023-03-25T18:13:45.759Z,1.23
2023-03-25T18:16:14.997Z,0.55
2023-03-25T18:18:43.444Z,1.08
2023-03-25T18:21:13.746Z,0.80
2023-03-25T18:23:47.727Z,1.05
2023-03-25T18:26:18.361Z,0.50
2023-03-25T18:28:47.359Z,0.70
2023-03-25T18:31:17.581Z,0.60
2023-03-25T18:33:47.288Z,0.77
2023-03-25T18:36:15.897Z,0.95
2023-03-25T18:38:45.994Z,1.45
2023-03-25T18:41:15.119Z,0.90
2023-03-25T18:43:43.525Z,0.80
2023-03-25T18:46:13.924Z,0.88
2023-03-25T18:48:42.240Z,0.60
2023-03-25T18:51:13.098Z,0.60
2023-03-25T18:53:41.995Z,0.60
2023-03-25T18:56:11.944Z,0.52
2023-03-25T18:58:40.146Z,0.70
2023-03-25T19:01:10.004Z,0.40
2023-03-25T19:03:41.119Z,0.50
2023-03-25T19:06:11.765Z,0.70
2023-03-25T19:08:40.611Z,0.68
2023-03-25T19:11:20.064Z,0.50
2023-03-25T19:13:51.654Z,0.70
2023-03-25T19:16:20.801Z,1.00
2023-03-25T19:18:49.549Z,0.52
2023-03-25T19:21:19.603Z,0.50
2023-03-25T19:23:48.089Z,0.55
2023-03-25T19:26:16.647Z,0.73
2023-03-25T19:28:44.880Z,0.70
2023-03-25T19:31:16.593Z,2.53
2023-03-25T19:33:45.004Z,1.38
2023-03-25T19:36:15.732Z,1.10
2023-03-25T19:38:44.133Z,0.77
2023-03-25T19:41:15.574Z,0.60
2023-03-25T19:43:44.054Z,0.85
2023-03-25T19:46:14.016Z,0.80
2023-03-25T19:48:42.226Z,0.50
2023-03-25T19:51:10.499Z,0.63
2023-03-25T19:53:38.827Z,0.75
2023-03-25T19:56:07.410Z,0.90
2023-03-25T19:58:35.668Z,0.68
2023-03-25T20:01:03.844Z,1.00
2023-03-25T20:03:35.605Z,0.70
2023-03-25T20:06:06.153Z,0.68
2023-03-25T20:08:34.514Z,1.02
2023-03-25T20:11:09.836Z,0.70
2023-03-25T20:13:39.365Z,0.60
2023-03-25T20:16:08.793Z,0.50
2023-03-25T20:18:39.008Z,0.47
2023-03-25T20:21:08.704Z,0.75
2023-03-25T20:23:38.007Z,1.65
2023-03-25T20:26:06.973Z,2.70
2023-03-25T20:28:37.189Z,2.10
2023-03-25T20:31:18.742Z,2.15
2023-03-25T20:33:49.949Z,1.80
2023-03-25T20:36:18.227Z,1.90
2023-03-25T20:38:56.698Z,3.25
2023-03-25T20:41:26.551Z,2.22
2023-03-25T20:43:54.780Z,1.58
2023-03-25T20:46:25.383Z,2.20
2023-03-25T20:48:55.103Z,3.50
2023-03-25T20:51:24.168Z,2.80
2023-03-25T20:53:53.243Z,2.08
2023-03-25T20:56:22.324Z,2.13
2023-03-25T20:58:50.579Z,2.15
2023-03-25T21:01:21.418Z,1.13
2023-03-25T21:03:51.777Z,1.30
2023-03-25T21:06:25.543Z,1.60
2023-03-25T21:08:55.884Z,1.60
2023-03-25T21:11:24.358Z,0.80
2023-03-25T21:13:52.727Z,4.05
2023-03-25T21:16:21.271Z,1.30
2023-03-25T21:18:50.306Z,0.82
2023-03-25T21:21:19.853Z,0.57
2023-03-25T21:23:49.875Z,0.52
2023-03-25T21:26:18.077Z,1.05
2023-03-25T21:28:46.404Z,0.55
2023-03-25T21:31:18.864Z,0.50
2023-03-25T21:33:50.012Z,0.70
2023-03-25T21:36:21.368Z,0.60
2023-03-25T21:38:52.336Z,0.45
2023-03-25T21:41:20.580Z,0.60
2023-03-25T21:43:49.301Z,0.82
2023-03-25T21:46:17.802Z,0.95
2023-03-25T21:48:48.565Z,0.57
2023-03-25T21:51:16.771Z,0.50
2023-03-25T21:53:46.402Z,0.70
2023-03-25T21:56:17.930Z,0.68
2023-03-25T21:58:47.152Z,0.77
2023-03-25T22:01:17.150Z,1.23
2023-03-25T22:03:46.562Z,1.27
2023-03-25T22:06:16.597Z,0.93
2023-03-25T22:08:45.618Z,1.13
2023-03-25T22:11:17.379Z,0.95
2023-03-25T22:13:46.468Z,0.93
2023-03-25T22:16:17.020Z,0.88
2023-03-25T22:18:45.950Z,0.80
2023-03-25T22:21:16.164Z,0.90
2023-03-25T22:23:46.276Z,1.05
2023-03-25T22:26:17.605Z,0.77
2023-03-25T22:28:47.689Z,0.75
2023-03-25T22:31:18.097Z,0.82
2023-03-25T22:33:46.812Z,1.00
2023-03-25T22:36:17.118Z,1.00
2023-03-25T22:38:46.913Z,0.70
2023-03-25T22:41:17.383Z,1.00
2023-03-25T22:43:46.671Z,0.60
2023-03-25T22:46:16.107Z,1.00
2023-03-25T22:48:44.508Z,0.70
2023-03-25T22:51:14.805Z,0.60
2023-03-25T22:53:43.122Z,0.80
2023-03-25T22:56:12.122Z,0.70
2023-03-25T22:58:41.897Z,0.70
2023-03-25T23:01:22.017Z,0.73
2023-03-25T23:03:50.281Z,0.73
2023-03-25T23:06:18.539Z,0.70
2023-03-25T23:08:47.448Z,1.02
2023-03-25T23:11:18.304Z,0.70
2023-03-25T23:13:49.654Z,1.00
2023-03-25T23:16:20.728Z,0.85
2023-03-25T23:18:48.948Z,1.20
2023-03-25T23:21:19.777Z,1.10
2023-03-25T23:23:52.910Z,0.90
2023-03-25T23:26:24.825Z,1.27
2023-03-25T23:29:00.352Z,0.80
2023-03-25T23:31:35.416Z,0.95
2023-03-25T23:34:06.410Z,1.17
2023-03-25T23:36:36.386Z,0.93
2023-03-25T23:39:06.857Z,1.40
2023-03-25T23:41:35.749Z,0.85
2023-03-25T23:44:05.981Z,0.95
2023-03-25T23:46:35.238Z,0.77
2023-03-25T23:49:03.793Z,0.88
2023-03-25T23:51:33.916Z,0.90
2023-03-25T23:54:02.323Z,1.10
2023-03-25T23:56:31.037Z,1.13
2023-03-25T23:59:00.140Z,0.93
